sensor_id;sensor_type;location;lat;lon;timestamp;P1;durP1;ratioP1;P2;durP2;ratioP2
71648;SDS011;70112;45.624;11.760;2024-01-15T00:01:45;103.10;;;60.50;;
71648;SDS011;70112;45.624;11.760;2024-01-15T00:04:26;104.00;;;60.40;;
71648;SDS011;70112;45.624;11.760;2024-01-15T00:07:17;101.10;;;59.60;;
71648;SDS011;70112;45.624;11.760;2024-01-15T00:09:48;99.40;;;57.00;;
71648;SDS011;70112;45.624;11.760;2024-01-15T00:12:14;95.30;;;59.20;;
71648;SDS011;70112;45.624;11.760;2024-01-15T00:14:39;91.90;;;56.50;;
71648;SDS011;70112;45.624;11.760;2024-01-15T00:17:08;97.60;;;59.30;;
71648;SDS011;70112;45.624;11.760;2024-01-15T00:22:19;97.20;;;57.90;;
71648;SDS011;70112;45.624;11.760;2024-01-15T00:25:01;96.90;;;57.70;;
71648;SDS011;70112;45.624;11.760;2024-01-15T00:28:10;92.80;;;58.60;;
71648;SDS011;70112;45.624;11.760;2024-01-15T00:30:51;96.50;;;58.00;;
71648;SDS011;70112;45.624;11.760;2024-01-15T00:33:43;90.70;;;54.20;;
71648;SDS011;70112;45.624;11.760;2024-01-15T00:36:39;97.60;;;54.90;;
71648;SDS011;70112;45.624;11.760;2024-01-15T00:39:05;97.00;;;58.50;;
71648;SDS011;70112;45.624;11.760;2024-01-15T00:41:43;91.60;;;58.20;;
71648;SDS011;70112;45.624;11.760;2024-01-15T00:44:33;90.40;;;58.80;;
71648;SDS011;70112;45.624;11.760;2024-01-15T00:48:06;98.30;;;59.20;;
71648;SDS011;70112;45.624;11.760;2024-01-15T00:50:57;108.40;;;62.90;;
71648;SDS011;70112;45.624;11.760;2024-01-15T00:53:23;111.00;;;63.70;;
71648;SDS011;70112;45.624;11.760;2024-01-15T00:59:46;114.30;;;64.00;;
71648;SDS011;70112;45.624;11.760;2024-01-15T01:02:22;122.70;;;64.00;;
71648;SDS011;70112;45.624;11.760;2024-01-15T01:04:53;118.60;;;64.40;;
71648;SDS011;70112;45.624;11.760;2024-01-15T01:07:56;120.20;;;65.60;;
71648;SDS011;70112;45.624;11.760;2024-01-15T01:10:27;112.60;;;62.40;;
71648;SDS011;70112;45.624;11.760;2024-01-15T01:13:05;116.70;;;63.00;;
71648;SDS011;70112;45.624;11.760;2024-01-15T01:15:56;117.40;;;64.80;;
71648;SDS011;70112;45.624;11.760;2024-01-15T01:18:22;115.20;;;61.70;;
71648;SDS011;70112;45.624;11.760;2024-01-15T01:21:08;106.30;;;61.80;;
71648;SDS011;70112;45.624;11.760;2024-01-15T01:26:53;95.10;;;56.30;;
71648;SDS011;70112;45.624;11.760;2024-01-15T01:29:19;105.20;;;61.50;;
71648;SDS011;70112;45.624;11.760;2024-01-15T01:37:34;104.50;;;60.70;;
71648;SDS011;70112;45.624;11.760;2024-01-15T01:40:33;102.90;;;59.00;;
71648;SDS011;70112;45.624;11.760;2024-01-15T01:43:30;103.70;;;58.90;;
71648;SDS011;70112;45.624;11.760;2024-01-15T01:46:07;109.80;;;60.80;;
71648;SDS011;70112;45.624;11.760;2024-01-15T01:49:04;124.10;;;64.00;;
71648;SDS011;70112;45.624;11.760;2024-01-15T01:51:50;117.80;;;63.00;;
71648;SDS011;70112;45.624;11.760;2024-01-15T01:54:25;106.10;;;61.90;;
71648;SDS011;70112;45.624;11.760;2024-01-15T01:57:26;114.60;;;63.10;;
71648;SDS011;70112;45.624;11.760;2024-01-15T02:00:23;108.30;;;62.80;;
71648;SDS011;70112;45.624;11.760;2024-01-15T02:03:32;104.70;;;61.80;;
71648;SDS011;70112;45.624;11.760;2024-01-15T02:09:15;94.30;;;56.10;;
71648;SDS011;70112;45.624;11.760;2024-01-15T02:11:48;90.10;;;55.30;;
71648;SDS011;70112;45.624;11.760;2024-01-15T02:17:31;95.00;;;55.70;;
71648;SDS011;70112;45.624;11.760;2024-01-15T02:21:00;87.40;;;52.90;;
71648;SDS011;70112;45.624;11.760;2024-01-15T02:27:15;95.30;;;54.60;;
71648;SDS011;70112;45.624;11.760;2024-01-15T02:30:11;88.70;;;55.10;;
71648;SDS011;70112;45.624;11.760;2024-01-15T02:33:09;96.30;;;55.90;;
71648;SDS011;70112;45.624;11.760;2024-01-15T02:35:58;94.30;;;56.90;;
71648;SDS011;70112;45.624;11.760;2024-01-15T02:41:25;93.20;;;55.50;;
71648;SDS011;70112;45.624;11.760;2024-01-15T02:44:28;90.30;;;52.30;;
71648;SDS011;70112;45.624;11.760;2024-01-15T02:56:23;93.40;;;55.20;;
71648;SDS011;70112;45.624;11.760;2024-01-15T02:59:31;85.30;;;53.20;;
71648;SDS011;70112;45.624;11.760;2024-01-15T03:02:49;91.10;;;53.30;;
71648;SDS011;70112;45.624;11.760;2024-01-15T03:05:35;90.80;;;53.50;;
71648;SDS011;70112;45.624;11.760;2024-01-15T03:08:39;93.80;;;54.50;;
71648;SDS011;70112;45.624;11.760;2024-01-15T03:18:26;80.70;;;50.30;;
71648;SDS011;70112;45.624;11.760;2024-01-15T03:21:10;84.10;;;50.30;;
71648;SDS011;70112;45.624;11.760;2024-01-15T03:24:24;85.80;;;51.70;;
71648;SDS011;70112;45.624;11.760;2024-01-15T03:27:27;78.30;;;50.30;;
71648;SDS011;70112;45.624;11.760;2024-01-15T03:30:18;79.60;;;51.60;;
71648;SDS011;70112;45.624;11.760;2024-01-15T03:36:24;79.40;;;51.10;;
71648;SDS011;70112;45.624;11.760;2024-01-15T03:39:24;73.80;;;48.30;;
71648;SDS011;70112;45.624;11.760;2024-01-15T03:42:26;81.40;;;50.40;;
71648;SDS011;70112;45.624;11.760;2024-01-15T03:48:58;78.80;;;46.30;;
71648;SDS011;70112;45.624;11.760;2024-01-15T03:52:25;81.90;;;48.60;;
71648;SDS011;70112;45.624;11.760;2024-01-15T03:55:09;77.30;;;49.90;;
71648;SDS011;70112;45.624;11.760;2024-01-15T04:04:42;75.10;;;47.60;;
71648;SDS011;70112;45.624;11.760;2024-01-15T04:10:53;75.10;;;47.10;;
71648;SDS011;70112;45.624;11.760;2024-01-15T04:17:24;96.70;;;52.60;;
71648;SDS011;70112;45.624;11.760;2024-01-15T04:20:24;92.40;;;50.00;;
71648;SDS011;70112;45.624;11.760;2024-01-15T04:23:29;83.40;;;50.40;;
71648;SDS011;70112;45.624;11.760;2024-01-15T04:26:16;80.20;;;47.10;;
71648;SDS011;70112;45.624;11.760;2024-01-15T04:29:27;79.70;;;49.20;;
71648;SDS011;70112;45.624;11.760;2024-01-15T04:32:42;82.90;;;50.90;;
71648;SDS011;70112;45.624;11.760;2024-01-15T04:35:19;93.50;;;51.90;;
71648;SDS011;70112;45.624;11.760;2024-01-15T04:49:27;95.40;;;50.90;;
71648;SDS011;70112;45.624;11.760;2024-01-15T04:52:35;78.70;;;47.30;;
71648;SDS011;70112;45.624;11.760;2024-01-15T04:56:09;83.30;;;47.50;;
71648;SDS011;70112;45.624;11.760;2024-01-15T05:06:46;91.40;;;52.40;;
71648;SDS011;70112;45.624;11.760;2024-01-15T05:12:51;76.10;;;46.50;;
71648;SDS011;70112;45.624;11.760;2024-01-15T05:18:49;74.10;;;44.80;;
71648;SDS011;70112;45.624;11.760;2024-01-15T05:25:12;76.30;;;45.70;;
71648;SDS011;70112;45.624;11.760;2024-01-15T05:28:50;86.20;;;48.70;;
71648;SDS011;70112;45.624;11.760;2024-01-15T05:42:03;70.40;;;45.30;;
71648;SDS011;70112;45.624;11.760;2024-01-15T05:45:21;69.60;;;42.30;;
71648;SDS011;70112;45.624;11.760;2024-01-15T05:52:00;71.80;;;44.50;;
71648;SDS011;70112;45.624;11.760;2024-01-15T06:01:59;70.00;;;43.00;;
71648;SDS011;70112;45.624;11.760;2024-01-15T06:05:39;65.40;;;39.60;;
71648;SDS011;70112;45.624;11.760;2024-01-15T06:12:16;63.90;;;39.50;;
71648;SDS011;70112;45.624;11.760;2024-01-15T06:18:24;69.90;;;41.20;;
71648;SDS011;70112;45.624;11.760;2024-01-15T06:21:21;67.00;;;42.70;;
71648;SDS011;70112;45.624;11.760;2024-01-15T06:37:54;79.10;;;48.80;;
71648;SDS011;70112;45.624;11.760;2024-01-15T06:43:55;78.10;;;48.50;;
71648;SDS011;70112;45.624;11.760;2024-01-15T06:46:48;75.10;;;46.50;;
71648;SDS011;70112;45.624;11.760;2024-01-15T06:55:44;95.00;;;53.60;;
71648;SDS011;70112;45.624;11.760;2024-01-15T07:02:54;89.50;;;51.30;;
71648;SDS011;70112;45.624;11.760;2024-01-15T07:05:34;86.60;;;50.80;;
71648;SDS011;70112;45.624;11.760;2024-01-15T07:11:54;88.40;;;50.50;;
71648;SDS011;70112;45.624;11.760;2024-01-15T07:15:41;80.00;;;48.00;;
71648;SDS011;70112;45.624;11.760;2024-01-15T07:18:19;91.40;;;50.80;;
71648;SDS011;70112;45.624;11.760;2024-01-15T07:20:45;84.20;;;49.40;;
71648;SDS011;70112;45.624;11.760;2024-01-15T07:23:31;122.00;;;52.40;;
71648;SDS011;70112;45.624;11.760;2024-01-15T07:29:16;77.30;;;47.10;;
71648;SDS011;70112;45.624;11.760;2024-01-15T07:32:05;74.30;;;44.10;;
71648;SDS011;70112;45.624;11.760;2024-01-15T07:35:20;75.20;;;46.30;;
71648;SDS011;70112;45.624;11.760;2024-01-15T07:38:19;71.10;;;43.30;;
71648;SDS011;70112;45.624;11.760;2024-01-15T07:44:47;67.30;;;38.80;;
71648;SDS011;70112;45.624;11.760;2024-01-15T07:51:20;58.60;;;37.80;;
71648;SDS011;70112;45.624;11.760;2024-01-15T07:54:21;59.90;;;36.30;;
71648;SDS011;70112;45.624;11.760;2024-01-15T08:03:55;53.00;;;34.50;;
71648;SDS011;70112;45.624;11.760;2024-01-15T08:06:37;49.90;;;32.30;;
71648;SDS011;70112;45.624;11.760;2024-01-15T08:09:03;57.00;;;35.50;;
71648;SDS011;70112;45.624;11.760;2024-01-15T08:11:50;64.20;;;39.00;;
71648;SDS011;70112;45.624;11.760;2024-01-15T08:14:26;60.10;;;36.70;;
71648;SDS011;70112;45.624;11.760;2024-01-15T08:19:26;51.00;;;32.70;;
71648;SDS011;70112;45.624;11.760;2024-01-15T08:21:55;53.10;;;33.40;;
71648;SDS011;70112;45.624;11.760;2024-01-15T08:24:23;57.30;;;33.80;;
71648;SDS011;70112;45.624;11.760;2024-01-15T08:27:03;62.20;;;37.30;;
71648;SDS011;70112;45.624;11.760;2024-01-15T08:29:51;63.90;;;37.50;;
71648;SDS011;70112;45.624;11.760;2024-01-15T08:36:22;72.20;;;40.30;;
71648;SDS011;70112;45.624;11.760;2024-01-15T08:41:47;60.20;;;36.00;;
71648;SDS011;70112;45.624;11.760;2024-01-15T08:44:40;52.60;;;34.80;;
71648;SDS011;70112;45.624;11.760;2024-01-15T08:47:17;68.40;;;36.80;;
71648;SDS011;70112;45.624;11.760;2024-01-15T08:49:45;58.80;;;37.20;;
71648;SDS011;70112;45.624;11.760;2024-01-15T08:52:40;60.40;;;35.00;;
71648;SDS011;70112;45.624;11.760;2024-01-15T08:55:27;64.10;;;36.90;;
71648;SDS011;70112;45.624;11.760;2024-01-15T09:01:19;55.00;;;35.90;;
71648;SDS011;70112;45.624;11.760;2024-01-15T09:07:09;54.20;;;37.10;;
71648;SDS011;70112;45.624;11.760;2024-01-15T09:09:58;50.10;;;34.00;;
71648;SDS011;70112;45.624;11.760;2024-01-15T09:12:27;52.70;;;36.40;;
71648;SDS011;70112;45.624;11.760;2024-01-15T09:15:17;51.70;;;37.00;;
71648;SDS011;70112;45.624;11.760;2024-01-15T09:17:45;58.70;;;39.80;;
71648;SDS011;70112;45.624;11.760;2024-01-15T09:20:16;56.80;;;39.80;;
71648;SDS011;70112;45.624;11.760;2024-01-15T09:22:57;58.30;;;40.00;;
71648;SDS011;70112;45.624;11.760;2024-01-15T09:28:19;55.90;;;40.10;;
71648;SDS011;70112;45.624;11.760;2024-01-15T09:30:45;58.60;;;42.40;;
71648;SDS011;70112;45.624;11.760;2024-01-15T09:33:13;58.30;;;43.00;;
71648;SDS011;70112;45.624;11.760;2024-01-15T09:35:39;68.80;;;46.70;;
71648;SDS011;70112;45.624;11.760;2024-01-15T09:38:04;67.20;;;47.50;;
71648;SDS011;70112;45.624;11.760;2024-01-15T09:40:31;57.50;;;43.60;;
71648;SDS011;70112;45.624;11.760;2024-01-15T09:43:01;64.00;;;43.60;;
71648;SDS011;70112;45.624;11.760;2024-01-15T09:45:28;58.70;;;41.90;;
71648;SDS011;70112;45.624;11.760;2024-01-15T09:47:57;61.80;;;39.30;;
71648;SDS011;70112;45.624;11.760;2024-01-15T09:50:33;49.50;;;36.90;;
71648;SDS011;70112;45.624;11.760;2024-01-15T09:53:01;49.50;;;36.00;;
71648;SDS011;70112;45.624;11.760;2024-01-15T09:55:28;52.80;;;37.70;;
71648;SDS011;70112;45.624;11.760;2024-01-15T09:57:55;59.30;;;39.20;;
71648;SDS011;70112;45.624;11.760;2024-01-15T10:00:22;62.80;;;42.80;;
71648;SDS011;70112;45.624;11.760;2024-01-15T10:02:48;60.30;;;41.50;;
71648;SDS011;70112;45.624;11.760;2024-01-15T10:05:14;71.10;;;42.80;;
71648;SDS011;70112;45.624;11.760;2024-01-15T10:07:41;59.90;;;40.60;;
71648;SDS011;70112;45.624;11.760;2024-01-15T10:10:12;61.90;;;40.90;;
71648;SDS011;70112;45.624;11.760;2024-01-15T10:12:38;63.50;;;42.90;;
71648;SDS011;70112;45.624;11.760;2024-01-15T10:15:13;66.70;;;42.70;;
71648;SDS011;70112;45.624;11.760;2024-01-15T10:17:59;63.10;;;42.30;;
71648;SDS011;70112;45.624;11.760;2024-01-15T10:20:25;69.40;;;46.90;;
71648;SDS011;70112;45.624;11.760;2024-01-15T10:23:12;68.10;;;47.30;;
71648;SDS011;70112;45.624;11.760;2024-01-15T10:25:41;73.00;;;47.70;;
71648;SDS011;70112;45.624;11.760;2024-01-15T10:28:07;67.70;;;45.90;;
71648;SDS011;70112;45.624;11.760;2024-01-15T10:30:33;70.10;;;45.80;;
71648;SDS011;70112;45.624;11.760;2024-01-15T10:33:03;72.70;;;46.30;;
71648;SDS011;70112;45.624;11.760;2024-01-15T10:35:31;72.50;;;46.40;;
71648;SDS011;70112;45.624;11.760;2024-01-15T10:37:59;72.00;;;47.30;;
71648;SDS011;70112;45.624;11.760;2024-01-15T10:40:29;66.10;;;44.20;;
71648;SDS011;70112;45.624;11.760;2024-01-15T10:42:54;67.30;;;46.20;;
71648;SDS011;70112;45.624;11.760;2024-01-15T10:45:20;61.00;;;42.60;;
71648;SDS011;70112;45.624;11.760;2024-01-15T10:47:47;74.30;;;45.60;;
71648;SDS011;70112;45.624;11.760;2024-01-15T10:50:14;67.20;;;44.30;;
71648;SDS011;70112;45.624;11.760;2024-01-15T10:52:41;68.10;;;45.00;;
71648;SDS011;70112;45.624;11.760;2024-01-15T10:55:10;70.60;;;46.80;;
71648;SDS011;70112;45.624;11.760;2024-01-15T10:57:39;66.70;;;41.80;;
71648;SDS011;70112;45.624;11.760;2024-01-15T11:00:05;70.90;;;47.10;;
71648;SDS011;70112;45.624;11.760;2024-01-15T11:02:51;69.80;;;48.10;;
71648;SDS011;70112;45.624;11.760;2024-01-15T11:05:21;71.40;;;47.60;;
71648;SDS011;70112;45.624;11.760;2024-01-15T11:07:49;71.10;;;47.20;;
71648;SDS011;70112;45.624;11.760;2024-01-15T11:16:09;67.30;;;44.00;;
71648;SDS011;70112;45.624;11.760;2024-01-15T11:19:01;62.00;;;41.90;;
71648;SDS011;70112;45.624;11.760;2024-01-15T11:21:30;59.70;;;41.20;;
71648;SDS011;70112;45.624;11.760;2024-01-15T11:23:58;62.10;;;41.40;;
71648;SDS011;70112;45.624;11.760;2024-01-15T11:29:34;68.90;;;44.70;;
71648;SDS011;70112;45.624;11.760;2024-01-15T11:32:07;67.50;;;44.60;;
71648;SDS011;70112;45.624;11.760;2024-01-15T11:35:09;67.20;;;45.30;;
71648;SDS011;70112;45.624;11.760;2024-01-15T11:40:21;59.10;;;38.80;;
71648;SDS011;70112;45.624;11.760;2024-01-15T11:42:49;57.20;;;39.80;;
71648;SDS011;70112;45.624;11.760;2024-01-15T11:45:37;62.30;;;42.20;;
71648;SDS011;70112;45.624;11.760;2024-01-15T11:48:38;65.70;;;43.20;;
71648;SDS011;70112;45.624;11.760;2024-01-15T11:51:11;66.80;;;45.20;;
71648;SDS011;70112;45.624;11.760;2024-01-15T11:53:48;63.50;;;40.70;;
71648;SDS011;70112;45.624;11.760;2024-01-15T11:56:17;64.70;;;44.70;;
71648;SDS011;70112;45.624;11.760;2024-01-15T11:58:45;70.00;;;43.90;;
71648;SDS011;70112;45.624;11.760;2024-01-15T12:01:21;66.30;;;41.70;;
71648;SDS011;70112;45.624;11.760;2024-01-15T12:03:57;57.90;;;39.10;;
71648;SDS011;70112;45.624;11.760;2024-01-15T12:06:23;63.20;;;42.30;;
71648;SDS011;70112;45.624;11.760;2024-01-15T12:08:49;69.20;;;46.30;;
71648;SDS011;70112;45.624;11.760;2024-01-15T12:11:17;65.10;;;41.10;;
71648;SDS011;70112;45.624;11.760;2024-01-15T12:13:47;61.20;;;40.30;;
71648;SDS011;70112;45.624;11.760;2024-01-15T12:16:13;63.30;;;41.50;;
71648;SDS011;70112;45.624;11.760;2024-01-15T12:18:38;63.40;;;41.90;;
71648;SDS011;70112;45.624;11.760;2024-01-15T12:21:04;57.30;;;37.00;;
71648;SDS011;70112;45.624;11.760;2024-01-15T12:23:33;61.20;;;42.10;;
71648;SDS011;70112;45.624;11.760;2024-01-15T12:26:19;69.80;;;44.40;;
71648;SDS011;70112;45.624;11.760;2024-01-15T12:28:45;66.80;;;43.00;;
71648;SDS011;70112;45.624;11.760;2024-01-15T12:31:11;61.80;;;42.40;;
71648;SDS011;70112;45.624;11.760;2024-01-15T12:33:36;65.40;;;43.00;;
71648;SDS011;70112;45.624;11.760;2024-01-15T12:36:02;62.70;;;41.40;;
71648;SDS011;70112;45.624;11.760;2024-01-15T12:38:29;63.30;;;44.20;;
71648;SDS011;70112;45.624;11.760;2024-01-15T12:40:54;65.50;;;43.60;;
71648;SDS011;70112;45.624;11.760;2024-01-15T12:43:20;61.60;;;41.30;;
71648;SDS011;70112;45.624;11.760;2024-01-15T12:45:46;66.20;;;42.30;;
71648;SDS011;70112;45.624;11.760;2024-01-15T12:48:11;64.40;;;42.40;;
71648;SDS011;70112;45.624;11.760;2024-01-15T12:50:42;66.30;;;43.30;;
71648;SDS011;70112;45.624;11.760;2024-01-15T12:53:09;67.00;;;43.50;;
71648;SDS011;70112;45.624;11.760;2024-01-15T12:55:34;67.60;;;43.40;;
71648;SDS011;70112;45.624;11.760;2024-01-15T12:58:00;67.30;;;42.40;;
71648;SDS011;70112;45.624;11.760;2024-01-15T13:00:25;69.70;;;44.00;;
71648;SDS011;70112;45.624;11.760;2024-01-15T13:02:51;59.00;;;41.30;;
71648;SDS011;70112;45.624;11.760;2024-01-15T13:05:24;60.80;;;41.50;;
71648;SDS011;70112;45.624;11.760;2024-01-15T13:08:11;64.60;;;45.40;;
71648;SDS011;70112;45.624;11.760;2024-01-15T13:10:49;72.70;;;44.20;;
71648;SDS011;70112;45.624;11.760;2024-01-15T13:13:34;58.50;;;39.10;;
71648;SDS011;70112;45.624;11.760;2024-01-15T13:16:00;56.60;;;39.10;;
71648;SDS011;70112;45.624;11.760;2024-01-15T13:18:25;61.00;;;40.70;;
71648;SDS011;70112;45.624;11.760;2024-01-15T13:21:00;66.10;;;43.10;;
71648;SDS011;70112;45.624;11.760;2024-01-15T13:23:25;60.40;;;40.90;;
71648;SDS011;70112;45.624;11.760;2024-01-15T13:25:51;62.00;;;42.70;;
71648;SDS011;70112;45.624;11.760;2024-01-15T13:28:16;72.40;;;46.70;;
71648;SDS011;70112;45.624;11.760;2024-01-15T13:30:42;63.50;;;41.50;;
71648;SDS011;70112;45.624;11.760;2024-01-15T13:33:08;68.80;;;43.20;;
71648;SDS011;70112;45.624;11.760;2024-01-15T13:35:54;70.60;;;44.40;;
71648;SDS011;70112;45.624;11.760;2024-01-15T13:38:20;63.50;;;43.50;;
71648;SDS011;70112;45.624;11.760;2024-01-15T13:40:46;66.80;;;43.70;;
71648;SDS011;70112;45.624;11.760;2024-01-15T13:43:11;69.30;;;46.10;;
71648;SDS011;70112;45.624;11.760;2024-01-15T13:45:40;67.30;;;44.60;;
71648;SDS011;70112;45.624;11.760;2024-01-15T13:48:06;67.10;;;43.40;;
71648;SDS011;70112;45.624;11.760;2024-01-15T13:50:34;70.10;;;46.50;;
71648;SDS011;70112;45.624;11.760;2024-01-15T13:53:08;71.20;;;43.80;;
71648;SDS011;70112;45.624;11.760;2024-01-15T13:55:36;65.50;;;44.80;;
71648;SDS011;70112;45.624;11.760;2024-01-15T13:58:05;63.70;;;43.30;;
71648;SDS011;70112;45.624;11.760;2024-01-15T14:01:13;63.70;;;42.10;;
71648;SDS011;70112;45.624;11.760;2024-01-15T14:03:39;64.50;;;42.70;;
71648;SDS011;70112;45.624;11.760;2024-01-15T14:06:05;68.90;;;44.50;;
71648;SDS011;70112;45.624;11.760;2024-01-15T14:08:35;63.70;;;42.70;;
71648;SDS011;70112;45.624;11.760;2024-01-15T14:11:02;61.10;;;41.10;;
71648;SDS011;70112;45.624;11.760;2024-01-15T14:13:32;62.70;;;43.50;;
71648;SDS011;70112;45.624;11.760;2024-01-15T14:15:59;66.50;;;43.80;;
71648;SDS011;70112;45.624;11.760;2024-01-15T14:21:18;60.50;;;41.60;;
71648;SDS011;70112;45.624;11.760;2024-01-15T14:23:46;63.20;;;42.30;;
71648;SDS011;70112;45.624;11.760;2024-01-15T14:26:12;61.90;;;41.00;;
71648;SDS011;70112;45.624;11.760;2024-01-15T14:28:41;61.70;;;40.60;;
71648;SDS011;70112;45.624;11.760;2024-01-15T14:34:04;72.00;;;44.90;;
71648;SDS011;70112;45.624;11.760;2024-01-15T14:36:40;68.80;;;43.60;;
71648;SDS011;70112;45.624;11.760;2024-01-15T14:39:26;66.60;;;44.60;;
71648;SDS011;70112;45.624;11.760;2024-01-15T14:42:05;65.80;;;43.10;;
71648;SDS011;70112;45.624;11.760;2024-01-15T14:44:31;67.20;;;45.50;;
71648;SDS011;70112;45.624;11.760;2024-01-15T14:47:00;61.60;;;42.20;;
71648;SDS011;70112;45.624;11.760;2024-01-15T14:49:26;66.50;;;43.70;;
71648;SDS011;70112;45.624;11.760;2024-01-15T14:51:54;61.70;;;42.60;;
71648;SDS011;70112;45.624;11.760;2024-01-15T14:54:28;72.40;;;45.00;;
71648;SDS011;70112;45.624;11.760;2024-01-15T14:57:03;71.90;;;46.40;;
71648;SDS011;70112;45.624;11.760;2024-01-15T15:02:06;63.90;;;43.10;;
71648;SDS011;70112;45.624;11.760;2024-01-15T15:04:31;60.80;;;41.80;;
71648;SDS011;70112;45.624;11.760;2024-01-15T15:06:57;63.80;;;42.70;;
71648;SDS011;70112;45.624;11.760;2024-01-15T15:09:32;65.80;;;41.90;;
71648;SDS011;70112;45.624;11.760;2024-01-15T15:11:58;65.30;;;42.60;;
71648;SDS011;70112;45.624;11.760;2024-01-15T15:14:26;72.20;;;42.00;;
71648;SDS011;70112;45.624;11.760;2024-01-15T15:16:54;64.70;;;43.30;;
71648;SDS011;70112;45.624;11.760;2024-01-15T15:19:42;60.40;;;42.90;;
71648;SDS011;70112;45.624;11.760;2024-01-15T15:22:17;62.60;;;43.20;;
71648;SDS011;70112;45.624;11.760;2024-01-15T15:24:44;63.70;;;42.60;;
71648;SDS011;70112;45.624;11.760;2024-01-15T15:27:15;62.60;;;42.90;;
71648;SDS011;70112;45.624;11.760;2024-01-15T15:29:41;67.70;;;43.80;;
71648;SDS011;70112;45.624;11.760;2024-01-15T15:32:12;71.20;;;45.80;;
71648;SDS011;70112;45.624;11.760;2024-01-15T15:34:38;67.00;;;44.00;;
71648;SDS011;70112;45.624;11.760;2024-01-15T15:37:09;68.20;;;44.80;;
71648;SDS011;70112;45.624;11.760;2024-01-15T15:39:34;69.80;;;46.00;;
71648;SDS011;70112;45.624;11.760;2024-01-15T15:42:00;75.20;;;48.10;;
71648;SDS011;70112;45.624;11.760;2024-01-15T15:44:26;78.20;;;47.70;;
71648;SDS011;70112;45.624;11.760;2024-01-15T15:46:52;76.90;;;46.90;;
71648;SDS011;70112;45.624;11.760;2024-01-15T15:49:23;71.10;;;45.40;;
71648;SDS011;70112;45.624;11.760;2024-01-15T15:51:49;67.00;;;44.00;;
71648;SDS011;70112;45.624;11.760;2024-01-15T15:54:19;71.30;;;46.30;;
71648;SDS011;70112;45.624;11.760;2024-01-15T15:57:08;69.80;;;46.00;;
71648;SDS011;70112;45.624;11.760;2024-01-15T15:59:35;70.60;;;45.60;;
71648;SDS011;70112;45.624;11.760;2024-01-15T16:02:01;76.90;;;47.60;;
71648;SDS011;70112;45.624;11.760;2024-01-15T16:04:27;73.00;;;46.30;;
71648;SDS011;70112;45.624;11.760;2024-01-15T16:06:53;64.10;;;41.90;;
71648;SDS011;70112;45.624;11.760;2024-01-15T16:09:19;72.40;;;45.30;;
71648;SDS011;70112;45.624;11.760;2024-01-15T16:11:45;73.50;;;45.00;;
71648;SDS011;70112;45.624;11.760;2024-01-15T16:14:12;70.40;;;45.20;;
71648;SDS011;70112;45.624;11.760;2024-01-15T16:16:57;66.90;;;44.40;;
71648;SDS011;70112;45.624;11.760;2024-01-15T16:19:24;70.40;;;46.90;;
71648;SDS011;70112;45.624;11.760;2024-01-15T16:22:03;69.30;;;46.40;;
71648;SDS011;70112;45.624;11.760;2024-01-15T16:24:32;78.70;;;46.10;;
71648;SDS011;70112;45.624;11.760;2024-01-15T16:27:03;73.10;;;48.30;;
71648;SDS011;70112;45.624;11.760;2024-01-15T16:29:31;74.40;;;47.20;;
71648;SDS011;70112;45.624;11.760;2024-01-15T16:32:31;78.30;;;45.60;;
71648;SDS011;70112;45.624;11.760;2024-01-15T16:34:56;76.80;;;49.50;;
71648;SDS011;70112;45.624;11.760;2024-01-15T16:37:24;82.40;;;49.30;;
71648;SDS011;70112;45.624;11.760;2024-01-15T16:39:50;82.60;;;50.50;;
71648;SDS011;70112;45.624;11.760;2024-01-15T16:42:16;78.60;;;48.90;;
71648;SDS011;70112;45.624;11.760;2024-01-15T16:45:14;83.50;;;48.30;;
71648;SDS011;70112;45.624;11.760;2024-01-15T16:47:59;80.30;;;49.00;;
71648;SDS011;70112;45.624;11.760;2024-01-15T16:50:49;78.30;;;48.80;;
71648;SDS011;70112;45.624;11.760;2024-01-15T16:53:15;72.60;;;47.40;;
71648;SDS011;70112;45.624;11.760;2024-01-15T16:55:53;83.70;;;53.10;;
71648;SDS011;70112;45.624;11.760;2024-01-15T17:01:01;83.10;;;52.00;;
71648;SDS011;70112;45.624;11.760;2024-01-15T17:03:31;87.10;;;54.60;;
71648;SDS011;70112;45.624;11.760;2024-01-15T17:06:04;91.20;;;56.50;;
71648;SDS011;70112;45.624;11.760;2024-01-15T17:08:30;94.10;;;57.70;;
71648;SDS011;70112;45.624;11.760;2024-01-15T17:11:05;96.60;;;60.00;;
71648;SDS011;70112;45.624;11.760;2024-01-15T17:13:42;138.90;;;74.20;;
71648;SDS011;70112;45.624;11.760;2024-01-15T17:16:13;143.00;;;78.20;;
71648;SDS011;70112;45.624;11.760;2024-01-15T17:24:41;80.50;;;50.40;;
71648;SDS011;70112;45.624;11.760;2024-01-15T17:27:20;91.90;;;56.80;;
71648;SDS011;70112;45.624;11.760;2024-01-15T17:30:10;96.60;;;61.00;;
71648;SDS011;70112;45.624;11.760;2024-01-15T17:32:42;107.60;;;63.70;;
71648;SDS011;70112;45.624;11.760;2024-01-15T17:35:08;111.70;;;65.30;;
71648;SDS011;70112;45.624;11.760;2024-01-15T17:37:41;133.30;;;73.10;;
71648;SDS011;70112;45.624;11.760;2024-01-15T17:40:08;141.10;;;69.30;;
71648;SDS011;70112;45.624;11.760;2024-01-15T17:42:37;141.10;;;74.00;;
71648;SDS011;70112;45.624;11.760;2024-01-15T17:45:07;115.40;;;65.60;;
71648;SDS011;70112;45.624;11.760;2024-01-15T17:47:54;119.60;;;65.60;;
71648;SDS011;70112;45.624;11.760;2024-01-15T17:50:23;144.00;;;73.00;;
71648;SDS011;70112;45.624;11.760;2024-01-15T17:52:48;146.20;;;76.30;;
71648;SDS011;70112;45.624;11.760;2024-01-15T17:55:31;147.60;;;74.70;;
71648;SDS011;70112;45.624;11.760;2024-01-15T17:58:06;161.00;;;77.70;;
71648;SDS011;70112;45.624;11.760;2024-01-15T18:00:35;161.20;;;82.00;;
71648;SDS011;70112;45.624;11.760;2024-01-15T18:03:37;166.30;;;81.10;;
71648;SDS011;70112;45.624;11.760;2024-01-15T18:06:07;193.60;;;94.40;;
71648;SDS011;70112;45.624;11.760;2024-01-15T18:08:35;187.60;;;91.30;;
71648;SDS011;70112;45.624;11.760;2024-01-15T18:11:06;186.90;;;91.60;;
71648;SDS011;70112;45.624;11.760;2024-01-15T18:13:32;184.60;;;90.00;;
71648;SDS011;70112;45.624;11.760;2024-01-15T18:16:09;172.00;;;86.40;;
71648;SDS011;70112;45.624;11.760;2024-01-15T18:18:37;189.00;;;90.40;;
71648;SDS011;70112;45.624;11.760;2024-01-15T18:21:03;185.70;;;90.40;;
71648;SDS011;70112;45.624;11.760;2024-01-15T18:24:23;184.70;;;92.10;;
71648;SDS011;70112;45.624;11.760;2024-01-15T18:26:50;194.30;;;94.60;;
71648;SDS011;70112;45.624;11.760;2024-01-15T18:29:19;200.30;;;97.40;;
71648;SDS011;70112;45.624;11.760;2024-01-15T18:32:09;210.40;;;104.10;;
71648;SDS011;70112;45.624;11.760;2024-01-15T18:34:38;196.00;;;97.00;;
71648;SDS011;70112;45.624;11.760;2024-01-15T18:37:04;168.10;;;84.50;;
71648;SDS011;70112;45.624;11.760;2024-01-15T18:39:32;174.40;;;87.00;;
71648;SDS011;70112;45.624;11.760;2024-01-15T18:44:49;140.60;;;74.50;;
71648;SDS011;70112;45.624;11.760;2024-01-15T18:47:24;129.60;;;72.60;;
71648;SDS011;70112;45.624;11.760;2024-01-15T18:50:31;132.30;;;71.40;;